sensor_id;sensor_type;location;lat;lon;timestamp;pressure;altitude;pressure_sealevel;temperature;humidity
50550;BME280;36505;52.512;13.460;2023-08-17T00:00:58;101559.59;;;20.31;75.47
50550;BME280;36505;52.512;13.460;2023-08-17T00:03:24;101558.81;;;20.26;75.80
50550;BME280;36505;52.512;13.460;2023-08-17T00:05:49;101550.78;;;20.19;76.48
50550;BME280;36505;52.512;13.460;2023-08-17T00:08:14;101554.69;;;20.18;75.95
50550;BME280;36505;52.512;13.460;2023-08-17T00:10:40;101547.19;;;20.13;75.90
50550;BME280;36505;52.512;13.460;2023-08-17T00:13:05;101547.19;;;20.13;76.17
50550;BME280;36505;52.512;13.460;2023-08-17T00:15:30;101540.00;;;20.07;76.59
50550;BME280;36505;52.512;13.460;2023-08-17T00:17:57;101528.59;;;20.09;76.28
50550;BME280;36505;52.512;13.460;2023-08-17T00:20:22;101528.06;;;20.07;76.43
50550;BME280;36505;52.512;13.460;2023-08-17T00:22:49;101520.88;;;20.06;76.82
50550;BME280;36505;52.512;13.460;2023-08-17T00:25:14;101525.03;;;20.03;76.41
50550;BME280;36505;52.512;13.460;2023-08-17T00:27:40;101521.44;;;20.03;76.69
50550;BME280;36505;52.512;13.460;2023-08-17T00:30:05;101506.75;;;19.97;77.15
50550;BME280;36505;52.512;13.460;2023-08-17T00:32:31;101497.28;;;19.93;77.54
50550;BME280;36505;52.512;13.460;2023-08-17T00:34:56;101494.84;;;19.87;77.32
50550;BME280;36505;52.512;13.460;2023-08-17T00:37:21;101487.94;;;19.84;77.67
50550;BME280;36505;52.512;13.460;2023-08-17T00:39:47;101486.25;;;19.83;77.76
50550;BME280;36505;52.512;13.460;2023-08-17T00:42:12;101499.63;;;19.81;77.37
50550;BME280;36505;52.512;13.460;2023-08-17T00:44:38;101498.25;;;19.79;77.85
50550;BME280;36505;52.512;13.460;2023-08-17T00:47:03;101496.03;;;19.76;78.05
50550;BME280;36505;52.512;13.460;2023-08-17T00:49:30;101503.63;;;19.65;78.06
50550;BME280;36505;52.512;13.460;2023-08-17T00:51:56;101518.34;;;19.60;78.74
50550;BME280;36505;52.512;13.460;2023-08-17T00:54:23;101502.28;;;19.52;78.47
50550;BME280;36505;52.512;13.460;2023-08-17T00:56:49;101513.66;;;19.56;78.42
50550;BME280;36505;52.512;13.460;2023-08-17T00:59:15;101511.44;;;19.53;78.53
50550;BME280;36505;52.512;13.460;2023-08-17T01:01:40;101520.09;;;19.51;78.34
50550;BME280;36505;52.512;13.460;2023-08-17T01:04:06;101515.91;;;19.49;78.97
50550;BME280;36505;52.512;13.460;2023-08-17T01:06:31;101513.69;;;19.51;78.55
50550;BME280;36505;52.512;13.460;2023-08-17T01:08:57;101511.19;;;19.49;78.36
50550;BME280;36505;52.512;13.460;2023-08-17T01:11:39;101517.00;;;19.53;78.26
50550;BME280;36505;52.512;13.460;2023-08-17T01:14:27;101512.31;;;19.48;78.42
50550;BME280;36505;52.512;13.460;2023-08-17T01:17:04;101510.38;;;19.44;78.38
50550;BME280;36505;52.512;13.460;2023-08-17T01:19:32;101509.53;;;19.43;78.40
50550;BME280;36505;52.512;13.460;2023-08-17T01:22:00;101504.00;;;19.33;78.45
50550;BME280;36505;52.512;13.460;2023-08-17T01:24:28;101508.19;;;19.36;78.50
50550;BME280;36505;52.512;13.460;2023-08-17T01:26:54;101507.06;;;19.37;78.41
50550;BME280;36505;52.512;13.460;2023-08-17T01:29:20;101500.41;;;19.38;78.01
50550;BME280;36505;52.512;13.460;2023-08-17T01:32:26;101490.69;;;19.35;78.68
50550;BME280;36505;52.512;13.460;2023-08-17T01:37:44;101495.75;;;19.23;78.90
50550;BME280;36505;52.512;13.460;2023-08-17T01:40:12;101504.91;;;19.18;78.97
50550;BME280;36505;52.512;13.460;2023-08-17T01:42:39;101512.41;;;19.13;79.59
50550;BME280;36505;52.512;13.460;2023-08-17T01:45:06;101500.50;;;19.07;79.68
50550;BME280;36505;52.512;13.460;2023-08-17T01:47:32;101504.38;;;19.06;79.65
50550;BME280;36505;52.512;13.460;2023-08-17T01:49:57;101498.28;;;19.04;79.71
50550;BME280;36505;52.512;13.460;2023-08-17T01:52:27;101495.50;;;19.04;79.94
50550;BME280;36505;52.512;13.460;2023-08-17T01:54:53;101500.78;;;19.06;79.97
50550;BME280;36505;52.512;13.460;2023-08-17T01:57:18;101502.44;;;19.07;79.92
50550;BME280;36505;52.512;13.460;2023-08-17T01:59:44;101507.16;;;19.06;79.95
50550;BME280;36505;52.512;13.460;2023-08-17T02:02:09;101513.28;;;19.08;79.62
50550;BME280;36505;52.512;13.460;2023-08-17T02:04:36;101514.09;;;19.09;79.63
50550;BME280;36505;52.512;13.460;2023-08-17T02:07:02;101511.34;;;19.09;79.46
50550;BME280;36505;52.512;13.460;2023-08-17T02:09:27;101506.63;;;19.09;79.74
50550;BME280;36505;52.512;13.460;2023-08-17T02:11:52;101504.91;;;19.13;79.57
50550;BME280;36505;52.512;13.460;2023-08-17T02:14:18;101508.81;;;19.12;79.09
50550;BME280;36505;52.512;13.460;2023-08-17T02:16:43;101511.31;;;19.14;79.37
50550;BME280;36505;52.512;13.460;2023-08-17T02:19:09;101504.66;;;19.10;79.50
50550;BME280;36505;52.512;13.460;2023-08-17T02:21:34;101497.72;;;19.07;79.57
50550;BME280;36505;52.512;13.460;2023-08-17T02:23:59;101504.97;;;19.03;79.69
50550;BME280;36505;52.512;13.460;2023-08-17T02:26:25;101505.25;;;19.02;80.06
50550;BME280;36505;52.512;13.460;2023-08-17T02:28:50;101514.13;;;19.04;79.91
50550;BME280;36505;52.512;13.460;2023-08-17T02:31:15;101514.97;;;18.99;79.67
50550;BME280;36505;52.512;13.460;2023-08-17T02:33:41;101512.75;;;18.96;80.29
50550;BME280;36505;52.512;13.460;2023-08-17T02:36:07;101508.88;;;18.92;80.05
50550;BME280;36505;52.512;13.460;2023-08-17T02:38:32;101511.91;;;18.90;80.27
50550;BME280;36505;52.512;13.460;2023-08-17T02:40:57;101499.72;;;18.86;80.77
50550;BME280;36505;52.512;13.460;2023-08-17T02:43:23;101494.72;;;18.83;80.73
50550;BME280;36505;52.512;13.460;2023-08-17T02:45:48;101496.16;;;18.81;80.82
50550;BME280;36505;52.512;13.460;2023-08-17T02:48:14;101483.63;;;18.83;80.04
50550;BME280;36505;52.512;13.460;2023-08-17T02:50:39;101486.41;;;18.83;79.71
50550;BME280;36505;52.512;13.460;2023-08-17T02:53:04;101476.75;;;18.76;80.55
50550;BME280;36505;52.512;13.460;2023-08-17T02:55:30;101476.72;;;18.71;80.34
50550;BME280;36505;52.512;13.460;2023-08-17T02:57:55;101472.28;;;18.70;80.55
50550;BME280;36505;52.512;13.460;2023-08-17T03:00:21;101475.66;;;18.67;80.53
50550;BME280;36505;52.512;13.460;2023-08-17T03:02:46;101473.69;;;18.67;80.24
50550;BME280;36505;52.512;13.460;2023-08-17T03:05:11;101477.31;;;18.68;80.44
50550;BME280;36505;52.512;13.460;2023-08-17T03:07:37;101479.25;;;18.67;80.32
50550;BME280;36505;52.512;13.460;2023-08-17T03:10:02;101471.19;;;18.66;80.39
50550;BME280;36505;52.512;13.460;2023-08-17T03:12:28;101477.84;;;18.65;79.91
50550;BME280;36505;52.512;13.460;2023-08-17T03:14:53;101477.59;;;18.66;79.33
50550;BME280;36505;52.512;13.460;2023-08-17T03:17:18;101480.63;;;18.65;79.61
50550;BME280;36505;52.512;13.460;2023-08-17T03:19:44;101471.78;;;18.63;79.67
50550;BME280;36505;52.512;13.460;2023-08-17T03:22:09;101471.50;;;18.59;79.56
50550;BME280;36505;52.512;13.460;2023-08-17T03:24:34;101475.66;;;18.62;79.14
50550;BME280;36505;52.512;13.460;2023-08-17T03:27:00;101459.84;;;18.57;78.80
50550;BME280;36505;52.512;13.460;2023-08-17T03:29:25;101468.44;;;18.61;78.97
50550;BME280;36505;52.512;13.460;2023-08-17T03:31:52;101469.81;;;18.58;78.75
50550;BME280;36505;52.512;13.460;2023-08-17T03:34:17;101472.03;;;18.56;78.57
50550;BME280;36505;52.512;13.460;2023-08-17T03:36:42;101480.63;;;18.54;78.14
50550;BME280;36505;52.512;13.460;2023-08-17T03:39:08;101467.88;;;18.53;78.17
50550;BME280;36505;52.512;13.460;2023-08-17T03:41:33;101466.22;;;18.52;77.70
50550;BME280;36505;52.512;13.460;2023-08-17T03:44:00;101477.31;;;18.52;77.97
50550;BME280;36505;52.512;13.460;2023-08-17T03:46:25;101468.41;;;18.50;77.55
50550;BME280;36505;52.512;13.460;2023-08-17T03:48:50;101467.59;;;18.50;77.62
50550;BME280;36505;52.512;13.460;2023-08-17T03:51:16;101474.53;;;18.52;77.11
50550;BME280;36505;52.512;13.460;2023-08-17T03:53:41;101476.78;;;18.56;77.30
50550;BME280;36505;52.512;13.460;2023-08-17T03:56:06;101474.00;;;18.61;76.65
50550;BME280;36505;52.512;13.460;2023-08-17T03:58:32;101470.66;;;18.64;76.52
50550;BME280;36505;52.512;13.460;2023-08-17T04:00:59;101472.84;;;18.72;75.80
50550;BME280;36505;52.512;13.460;2023-08-17T04:03:25;101465.09;;;18.74;75.70
50550;BME280;36505;52.512;13.460;2023-08-17T04:05:50;101469.25;;;18.76;75.45
50550;BME280;36505;52.512;13.460;2023-08-17T04:08:16;101463.97;;;18.75;75.41
50550;BME280;36505;52.512;13.460;2023-08-17T04:10:41;101469.81;;;18.73;74.86
50550;BME280;36505;52.512;13.460;2023-08-17T04:13:06;101462.84;;;18.71;74.59
50550;BME280;36505;52.512;13.460;2023-08-17T04:15:32;101459.25;;;18.75;74.35
50550;BME280;36505;52.512;13.460;2023-08-17T04:17:57;101458.16;;;18.71;74.17
50550;BME280;36505;52.512;13.460;2023-08-17T04:20:22;101453.19;;;18.68;74.99
50550;BME280;36505;52.512;13.460;2023-08-17T04:22:50;101460.09;;;18.71;74.71
50550;BME280;36505;52.512;13.460;2023-08-17T04:25:15;101452.31;;;18.73;74.20
50550;BME280;36505;52.512;13.460;2023-08-17T04:27:41;101462.03;;;18.75;74.18
50550;BME280;36505;52.512;13.460;2023-08-17T04:30:07;101457.59;;;18.74;73.98
50550;BME280;36505;52.512;13.460;2023-08-17T04:32:32;101465.91;;;18.74;73.59
50550;BME280;36505;52.512;13.460;2023-08-17T04:34:58;101462.31;;;18.74;73.53
50550;BME280;36505;52.512;13.460;2023-08-17T04:37:24;101462.31;;;18.74;73.57
50550;BME280;36505;52.512;13.460;2023-08-17T04:39:49;101453.44;;;18.72;73.79
50550;BME280;36505;52.512;13.460;2023-08-17T04:42:15;101447.88;;;18.72;73.94
50550;BME280;36505;52.512;13.460;2023-08-17T04:44:40;101452.31;;;18.78;73.55
50550;BME280;36505;52.512;13.460;2023-08-17T04:47:05;101456.16;;;18.87;72.40
50550;BME280;36505;52.512;13.460;2023-08-17T04:49:31;101463.38;;;18.88;72.27
50550;BME280;36505;52.512;13.460;2023-08-17T04:51:56;101464.75;;;18.90;72.32
50550;BME280;36505;52.512;13.460;2023-08-17T04:54:22;101463.09;;;18.94;72.44
50550;BME280;36505;52.512;13.460;2023-08-17T04:56:47;101467.22;;;18.97;71.78
50550;BME280;36505;52.512;13.460;2023-08-17T04:59:13;101459.72;;;19.03;72.06
50550;BME280;36505;52.512;13.460;2023-08-17T05:01:38;101463.31;;;19.08;72.16
50550;BME280;36505;52.512;13.460;2023-08-17T05:04:04;101469.09;;;19.12;71.27
50550;BME280;36505;52.512;13.460;2023-08-17T05:06:30;101476.03;;;19.19;71.21
50550;BME280;36505;52.512;13.460;2023-08-17T05:08:56;101477.41;;;19.22;70.72
50550;BME280;36505;52.512;13.460;2023-08-17T05:11:21;101487.09;;;19.29;71.13
50550;BME280;36505;52.512;13.460;2023-08-17T05:13:47;101486.78;;;19.36;70.37
50550;BME280;36505;52.512;13.460;2023-08-17T05:16:12;101485.66;;;19.42;70.53
50550;BME280;36505;52.512;13.460;2023-08-17T05:18:37;101485.66;;;19.42;69.96
50550;BME280;36505;52.512;13.460;2023-08-17T05:21:03;101477.88;;;19.44;70.28
50550;BME280;36505;52.512;13.460;2023-08-17T05:23:28;101479.81;;;19.49;69.69
50550;BME280;36505;52.512;13.460;2023-08-17T05:25:54;101480.34;;;19.51;70.27
50550;BME280;36505;52.512;13.460;2023-08-17T05:28:19;101484.19;;;19.60;69.60
50550;BME280;36505;52.512;13.460;2023-08-17T05:30:45;101474.97;;;19.69;69.25
50550;BME280;36505;52.512;13.460;2023-08-17T05:33:10;101484.63;;;19.77;69.27
50550;BME280;36505;52.512;13.460;2023-08-17T05:35:36;101482.09;;;19.81;68.49
50550;BME280;36505;52.512;13.460;2023-08-17T05:38:01;101475.38;;;19.87;68.63
50550;BME280;36505;52.512;13.460;2023-08-17T05:40:29;101467.03;;;19.92;68.20
50550;BME280;36505;52.512;13.460;2023-08-17T05:42:55;101473.94;;;19.94;67.73
50550;BME280;36505;52.512;13.460;2023-08-17T05:45:20;101465.03;;;19.97;67.89
50550;BME280;36505;52.512;13.460;2023-08-17T05:47:46;101459.38;;;20.07;68.21
50550;BME280;36505;52.512;13.460;2023-08-17T05:50:11;101469.88;;;20.16;67.65
50550;BME280;36505;52.512;13.460;2023-08-17T05:52:36;101469.84;;;20.21;66.93
50550;BME280;36505;52.512;13.460;2023-08-17T05:55:02;101474.66;;;20.10;66.69
50550;BME280;36505;52.512;13.460;2023-08-17T05:57:27;101481.63;;;20.07;67.27
50550;BME280;36505;52.512;13.460;2023-08-17T05:59:53;101493.41;;;19.94;67.53
50550;BME280;36505;52.512;13.460;2023-08-17T06:02:18;101506.78;;;19.92;68.12
50550;BME280;36505;52.512;13.460;2023-08-17T06:04:44;101514.28;;;19.92;68.09
50550;BME280;36505;52.512;13.460;2023-08-17T06:07:09;101522.59;;;19.97;67.50
50550;BME280;36505;52.512;13.460;2023-08-17T06:09:34;101545.09;;;19.95;67.28
50550;BME280;36505;52.512;13.460;2023-08-17T06:12:00;101559.84;;;19.96;67.89
50550;BME280;36505;52.512;13.460;2023-08-17T06:14:25;101573.97;;;19.99;68.07
50550;BME280;36505;52.512;13.460;2023-08-17T06:16:50;101585.63;;;20.06;68.56
50550;BME280;36505;52.512;13.460;2023-08-17T06:19:16;101578.34;;;20.16;68.15
50550;BME280;36505;52.512;13.460;2023-08-17T06:21:41;101566.66;;;20.19;68.46
50550;BME280;36505;52.512;13.460;2023-08-17T06:24:06;101546.63;;;20.17;68.98
50550;BME280;36505;52.512;13.460;2023-08-17T06:26:32;101559.09;;;20.24;68.86
50550;BME280;36505;52.512;13.460;2023-08-17T06:28:57;101546.31;;;20.23;67.79
50550;BME280;36505;52.512;13.460;2023-08-17T06:31:23;101557.66;;;20.27;67.73
50550;BME280;36505;52.512;13.460;2023-08-17T06:33:55;101554.88;;;20.27;67.98
50550;BME280;36505;52.512;13.460;2023-08-17T06:36:21;101553.25;;;20.26;67.96
50550;BME280;36505;52.512;13.460;2023-08-17T06:38:46;101553.25;;;20.26;68.12
50550;BME280;36505;52.512;13.460;2023-08-17T06:41:11;101540.97;;;20.27;68.03
50550;BME280;36505;52.512;13.460;2023-08-17T06:43:37;101544.59;;;20.27;68.94
50550;BME280;36505;52.512;13.460;2023-08-17T06:46:02;101539.56;;;20.29;69.30
50550;BME280;36505;52.512;13.460;2023-08-17T06:48:28;101532.88;;;20.35;68.75
50550;BME280;36505;52.512;13.460;2023-08-17T06:50:53;101527.59;;;20.39;67.72
50550;BME280;36505;52.512;13.460;2023-08-17T06:53:18;101529.59;;;20.33;68.32
50550;BME280;36505;52.512;13.460;2023-08-17T06:55:44;101517.56;;;20.38;68.29
50550;BME280;36505;52.512;13.460;2023-08-17T06:58:09;101527.47;;;20.49;68.52
50550;BME280;36505;52.512;13.460;2023-08-17T07:00:35;101541.06;;;20.56;67.60
50550;BME280;36505;52.512;13.460;2023-08-17T07:03:00;101537.06;;;20.67;67.73
50550;BME280;36505;52.512;13.460;2023-08-17T07:05:26;101535.63;;;20.74;66.89
50550;BME280;36505;52.512;13.460;2023-08-17T07:07:52;101526.09;;;20.80;66.25
50550;BME280;36505;52.512;13.460;2023-08-17T07:10:19;101525.97;;;20.90;66.38
50550;BME280;36505;52.512;13.460;2023-08-17T07:12:45;101531.72;;;20.99;66.55
50550;BME280;36505;52.512;13.460;2023-08-17T07:15:11;101528.34;;;21.02;65.04
50550;BME280;36505;52.512;13.460;2023-08-17T07:17:37;101524.16;;;21.05;65.36
50550;BME280;36505;52.512;13.460;2023-08-17T07:20:03;101532.97;;;21.12;65.21
50550;BME280;36505;52.512;13.460;2023-08-17T07:22:29;101529.59;;;21.15;64.77
50550;BME280;36505;52.512;13.460;2023-08-17T07:24:54;101531.28;;;21.16;64.98
50550;BME280;36505;52.512;13.460;2023-08-17T07:27:20;101536.56;;;21.17;65.36
50550;BME280;36505;52.512;13.460;2023-08-17T07:29:45;101532.59;;;21.23;65.17
50550;BME280;36505;52.512;13.460;2023-08-17T07:32:10;101542.84;;;21.28;65.07
50550;BME280;36505;52.512;13.460;2023-08-17T07:34:36;101539.25;;;21.27;64.78
50550;BME280;36505;52.512;13.460;2023-08-17T07:37:06;101539.28;;;21.22;64.92
50550;BME280;36505;52.512;13.460;2023-08-17T07:39:32;101535.16;;;21.20;65.48
50550;BME280;36505;52.512;13.460;2023-08-17T07:41:57;101532.91;;;21.22;65.29
50550;BME280;36505;52.512;13.460;2023-08-17T07:44:23;101527.84;;;21.24;65.34
50550;BME280;36505;52.512;13.460;2023-08-17T07:46:48;101527.47;;;21.31;64.94
50550;BME280;36505;52.512;13.460;2023-08-17T07:49:14;101526.06;;;21.33;65.03
50550;BME280;36505;52.512;13.460;2023-08-17T07:51:39;101537.03;;;21.24;64.97
50550;BME280;36505;52.512;13.460;2023-08-17T07:54:04;101528.50;;;21.16;65.31
50550;BME280;36505;52.512;13.460;2023-08-17T07:56:30;101528.31;;;21.07;65.91
50550;BME280;36505;52.512;13.460;2023-08-17T07:58:55;101525.75;;;21.11;66.07
50550;BME280;36505;52.512;13.460;2023-08-17T08:01:21;101518.47;;;21.15;65.82
50550;BME280;36505;52.512;13.460;2023-08-17T08:03:46;101520.03;;;21.26;65.94
50550;BME280;36505;52.512;13.460;2023-08-17T08:06:12;101519.41;;;21.29;65.82
50550;BME280;36505;52.512;13.460;2023-08-17T08:08:38;101523.56;;;21.32;65.56
50550;BME280;36505;52.512;13.460;2023-08-17T08:11:03;101514.09;;;21.33;65.55
50550;BME280;36505;52.512;13.460;2023-08-17T08:13:30;101512.31;;;21.42;66.02
50550;BME280;36505;52.512;13.460;2023-08-17T08:15:55;101506.66;;;21.47;65.88
50550;BME280;36505;52.512;13.460;2023-08-17T08:18:21;101497.50;;;21.65;65.60
50550;BME280;36505;52.512;13.460;2023-08-17T08:20:48;101493.81;;;21.70;65.62
50550;BME280;36505;52.512;13.460;2023-08-17T08:23:13;101491.41;;;22.00;65.08
50550;BME280;36505;52.512;13.460;2023-08-17T08:25:39;101489.75;;;22.51;63.07
50550;BME280;36505;52.512;13.460;2023-08-17T08:28:04;101485.75;;;22.70;62.52
50550;BME280;36505;52.512;13.460;2023-08-17T08:30:30;101483.03;;;22.98;62.26
50550;BME280;36505;52.512;13.460;2023-08-17T08:32:55;101483.94;;;23.20;60.87
50550;BME280;36505;52.512;13.460;2023-08-17T08:35:23;101492.53;;;23.38;60.99
50550;BME280;36505;52.512;13.460;2023-08-17T08:37:49;101480.09;;;23.44;59.89
50550;BME280;36505;52.512;13.460;2023-08-17T08:40:17;101474.63;;;23.39;60.61
50550;BME280;36505;52.512;13.460;2023-08-17T08:42:42;101473.38;;;23.31;60.63
50550;BME280;36505;52.512;13.460;2023-08-17T08:45:09;101475.47;;;22.98;61.74
50550;BME280;36505;52.512;13.460;2023-08-17T08:47:36;101472.56;;;22.90;62.54
50550;BME280;36505;52.512;13.460;2023-08-17T08:50:03;101472.03;;;22.74;63.16
50550;BME280;36505;52.512;13.460;2023-08-17T08:52:33;101463.81;;;22.64;63.46
50550;BME280;36505;52.512;13.460;2023-08-17T08:55:05;101460.19;;;22.50;64.16
50550;BME280;36505;52.512;13.460;2023-08-17T08:57:33;101461.47;;;22.38;65.35
50550;BME280;36505;52.512;13.460;2023-08-17T08:59:59;101471.47;;;22.26;65.70
50550;BME280;36505;52.512;13.460;2023-08-17T09:02:25;101451.69;;;22.09;66.60
50550;BME280;36505;52.512;13.460;2023-08-17T09:04:50;101461.72;;;22.10;66.94
50550;BME280;36505;52.512;13.460;2023-08-17T09:07:17;101450.34;;;22.06;67.44
50550;BME280;36505;52.512;13.460;2023-08-17T09:09:44;101456.97;;;22.10;67.45
50550;BME280;36505;52.512;13.460;2023-08-17T09:12:10;101449.00;;;22.03;67.45
50550;BME280;36505;52.512;13.460;2023-08-17T09:14:36;101439.91;;;21.93;68.00
50550;BME280;36505;52.512;13.460;2023-08-17T09:17:03;101421.91;;;21.85;68.41
50550;BME280;36505;52.512;13.460;2023-08-17T09:19:31;101443.94;;;21.68;68.81
50550;BME280;36505;52.512;13.460;2023-08-17T09:21:56;101446.81;;;21.63;69.46
50550;BME280;36505;52.512;13.460;2023-08-17T09:24:22;101439.63;;;21.57;70.06
50550;BME280;36505;52.512;13.460;2023-08-17T09:26:49;101441.84;;;21.60;70.26
50550;BME280;36505;52.512;13.460;2023-08-17T09:29:18;101452.59;;;21.66;69.85
50550;BME280;36505;52.512;13.460;2023-08-17T09:31:45;101453.78;;;21.79;69.62
50550;BME280;36505;52.512;13.460;2023-08-17T09:34:10;101455.31;;;21.90;69.37
50550;BME280;36505;52.512;13.460;2023-08-17T09:36:37;101446.47;;;22.21;68.94
50550;BME280;36505;52.512;13.460;2023-08-17T09:39:04;101443.66;;;22.67;67.80
50550;BME280;36505;52.512;13.460;2023-08-17T09:41:29;101447.53;;;23.12;66.54
50550;BME280;36505;52.512;13.460;2023-08-17T09:43:55;101450.91;;;23.50;63.97
50550;BME280;36505;52.512;13.460;2023-08-17T09:46:21;101444.28;;;23.59;63.95
50550;BME280;36505;52.512;13.460;2023-08-17T09:48:47;101440.91;;;23.71;63.79
50550;BME280;36505;52.512;13.460;2023-08-17T09:51:16;101435.09;;;23.81;62.98
50550;BME280;36505;52.512;13.460;2023-08-17T09:53:42;101454.09;;;23.93;63.08
50550;BME280;36505;52.512;13.460;2023-08-17T09:56:09;101438.56;;;23.65;62.95
50550;BME280;36505;52.512;13.460;2023-08-17T09:58:39;101442.53;;;23.50;63.31
50550;BME280;36505;52.512;13.460;2023-08-17T10:01:04;101442.53;;;23.22;64.65
50550;BME280;36505;52.512;13.460;2023-08-17T10:03:33;101445.34;;;23.22;65.27
50550;BME280;36505;52.512;13.460;2023-08-17T10:06:05;101439.22;;;23.34;64.80
50550;BME280;36505;52.512;13.460;2023-08-17T10:11:04;101429.91;;;23.39;64.86
50550;BME280;36505;52.512;13.460;2023-08-17T10:13:37;101436.22;;;23.31;64.98
50550;BME280;36505;52.512;13.460;2023-08-17T10:16:26;101420.41;;;23.26;65.66
50550;BME280;36505;52.512;13.460;2023-08-17T10:19:11;101412.75;;;23.32;65.60
50550;BME280;36505;52.512;13.460;2023-08-17T10:21:50;101425.66;;;23.28;66.21
50550;BME280;36505;52.512;13.460;2023-08-17T10:24:19;101428.41;;;23.05;66.35
50550;BME280;36505;52.512;13.460;2023-08-17T10:26:45;101425.69;;;22.87;67.28
50550;BME280;36505;52.512;13.460;2023-08-17T10:29:11;101423.81;;;22.68;68.14
50550;BME280;36505;52.512;13.460;2023-08-17T10:31:37;101427.31;;;22.60;68.46
50550;BME280;36505;52.512;13.460;2023-08-17T10:34:04;101423.59;;;22.51;68.96
50550;BME280;36505;52.512;13.460;2023-08-17T10:36:31;101428.78;;;22.58;69.37
50550;BME280;36505;52.512;13.460;2023-08-17T10:39:25;101427.47;;;22.82;68.78
50550;BME280;36505;52.512;13.460;2023-08-17T10:41:52;101433.34;;;23.08;68.18
50550;BME280;36505;52.512;13.460;2023-08-17T10:44:44;101431.03;;;23.38;66.57
50550;BME280;36505;52.512;13.460;2023-08-17T10:47:36;101420.94;;;23.64;65.57
50550;BME280;36505;52.512;13.460;2023-08-17T10:50:06;101412.38;;;23.83;64.69
50550;BME280;36505;52.512;13.460;2023-08-17T10:52:35;101412.84;;;23.98;63.96
50550;BME280;36505;52.512;13.460;2023-08-17T10:55:09;101420.47;;;24.07;64.04
50550;BME280;36505;52.512;13.460;2023-08-17T10:57:38;101421.34;;;24.16;63.80
50550;BME280;36505;52.512;13.460;2023-08-17T11:05:44;101421.53;;;24.42;63.62
50550;BME280;36505;52.512;13.460;2023-08-17T11:08:31;101412.47;;;24.45;63.70
50550;BME280;36505;52.512;13.460;2023-08-17T11:11:13;101398.69;;;24.48;63.41
50550;BME280;36505;52.512;13.460;2023-08-17T11:13:41;101401.97;;;24.50;63.32
50550;BME280;36505;52.512;13.460;2023-08-17T11:16:08;101401.88;;;24.64;63.28
50550;BME280;36505;52.512;13.460;2023-08-17T11:18:34;101399.63;;;24.74;62.72
50550;BME280;36505;52.512;13.460;2023-08-17T11:21:02;101398.81;;;24.83;62.35
50550;BME280;36505;52.512;13.460;2023-08-17T11:23:32;101410.50;;;24.85;62.17
50550;BME280;36505;52.512;13.460;2023-08-17T11:25:58;101407.19;;;24.74;62.78
50550;BME280;36505;52.512;13.460;2023-08-17T11:28:24;101409.41;;;24.55;63.02
50550;BME280;36505;52.512;13.460;2023-08-17T11:31:00;101407.19;;;24.43;63.89
50550;BME280;36505;52.512;13.460;2023-08-17T11:33:26;101409.16;;;24.34;64.38
50550;BME280;36505;52.512;13.460;2023-08-17T11:35:54;101397.81;;;24.39;64.82
50550;BME280;36505;52.512;13.460;2023-08-17T11:38:19;101399.25;;;24.36;64.96
50550;BME280;36505;52.512;13.460;2023-08-17T11:40:45;101398.13;;;24.37;65.21
50550;BME280;36505;52.512;13.460;2023-08-17T11:43:11;101403.72;;;24.37;64.86
50550;BME280;36505;52.512;13.460;2023-08-17T11:45:36;101399.41;;;24.31;65.36
50550;BME280;36505;52.512;13.460;2023-08-17T11:48:01;101398.56;;;24.31;65.32
50550;BME280;36505;52.512;13.460;2023-08-17T11:50:28;101403.19;;;24.27;65.41
50550;BME280;36505;52.512;13.460;2023-08-17T11:52:54;101394.63;;;24.32;65.31
50550;BME280;36505;52.512;13.460;2023-08-17T11:55:19;101397.06;;;24.25;65.76
50550;BME280;36505;52.512;13.460;2023-08-17T11:57:45;101392.81;;;24.05;66.71
50550;BME280;36505;52.512;13.460;2023-08-17T12:00:17;101390.84;;;24.06;66.73
50550;BME280;36505;52.512;13.460;2023-08-17T12:02:43;101392.88;;;24.14;66.87
50550;BME280;36505;52.512;13.460;2023-08-17T12:05:08;101397.81;;;24.17;66.71
50550;BME280;36505;52.512;13.460;2023-08-17T12:07:35;101396.75;;;24.26;66.27
50550;BME280;36505;52.512;13.460;2023-08-17T12:10:02;101399.25;;;24.36;65.95
50550;BME280;36505;52.512;13.460;2023-08-17T12:12:28;101393.88;;;24.40;66.26
50550;BME280;36505;52.512;13.460;2023-08-17T12:14:54;101381.78;;;24.31;66.29
50550;BME280;36505;52.512;13.460;2023-08-17T12:17:21;101380.59;;;24.23;67.40
50550;BME280;36505;52.512;13.460;2023-08-17T12:19:53;101392.50;;;24.29;67.66
50550;BME280;36505;52.512;13.460;2023-08-17T12:22:19;101378.53;;;24.37;67.53
50550;BME280;36505;52.512;13.460;2023-08-17T12:24:44;101381.88;;;24.48;67.37
50550;BME280;36505;52.512;13.460;2023-08-17T12:27:10;101381.41;;;24.55;67.14
50550;BME280;36505;52.512;13.460;2023-08-17T12:29:48;101379.94;;;24.57;66.73
50550;BME280;36505;52.512;13.460;2023-08-17T12:32:15;101381.22;;;24.51;67.62
50550;BME280;36505;52.512;13.460;2023-08-17T12:34:41;101375.97;;;24.58;67.88
50550;BME280;36505;52.512;13.460;2023-08-17T12:37:08;101378.19;;;24.70;67.00
50550;BME280;36505;52.512;13.460;2023-08-17T12:39:35;101368.63;;;24.71;66.24
50550;BME280;36505;52.512;13.460;2023-08-17T12:42:00;101373.09;;;24.80;66.92
50550;BME280;36505;52.512;13.460;2023-08-17T12:44:26;101373.00;;;24.94;66.51
50550;BME280;36505;52.512;13.460;2023-08-17T12:46:51;101360.34;;;25.14;65.52
50550;BME280;36505;52.512;13.460;2023-08-17T12:49:16;101355.59;;;25.23;64.68